Time,TemperatureF,DewpointF,PressureIn,WindDirection,WindDirectionDegrees,WindSpeedMPH,WindSpeedGustMPH,Humidity,HourlyPrecipIn,Conditions,Clouds,dailyrainin,SoftwareType,DateUTC
2013-01-02 00:00:00,48.7,47.1,29.96,West,270,7.0,7.0,94,0.00,CL,CL,0.03,WeatherDisplay:10.37,2013-01-02 00:00:00,
2013-01-02 01:00:00,49.9,48.2,29.99,SE,135,8.0,8.0,94,0.00,CL,CL,0.03,WeatherDisplay:10.37,2013-01-02 01:00:00,
2013-01-02 02:00:00,50.6,49.2,29.98,West,270,8.0,17.0,95,0.00,CL,CL,0.03,WeatherDisplay:10.37,2013-01-02 02:00:00,
2013-01-02 03:00:00,51.4,50.1,30.00,SE,135,7.0,10.0,95,0.00,CL,CL,0.03,WeatherDisplay:10.37,2013-01-02 03:00:00,
2013-01-02 04:00:00,52.7,51.0,30.02,WSW,248,7.0,12.0,94,0.00,CL,CL,0.03,WeatherDisplay:10.37,2013-01-02 04:00:00,
2013-01-02 05:00:00,53.2,51.6,30.06,West,270,9.0,14.0,94,0.00,CL,CL,0.03,WeatherDisplay:10.37,2013-01-02 05:00:00,
2013-01-02 06:00:00,53.6,51.6,30.06,WSW,248,10.0,13.0,93,0.00,CL,CL,0.03,WeatherDisplay:10.37,2013-01-02 06:00:00,
2013-01-02 07:00:00,54.2,51.9,30.06,WSW,248,7.0,9.0,92,0.00,CL,CL,0.03,WeatherDisplay:10.37,2013-01-02 07:00:00,
2013-01-02 08:00:00,54.7,52.1,30.07,WSW,248,9.0,16.0,91,0.00,CL,CL,0.03,WeatherDisplay:10.37,2013-01-02 08:00:00,
2013-01-02 09:00:00,54.0,51.4,30.11,ESE,113,7.0,9.0,91,0.00,CL,CL,0.03,WeatherDisplay:10.37,2013-01-02 09:00:00,
2013-01-02 10:00:00,53.2,51.0,30.11,WSW,248,7.0,7.0,92,0.00,CL,CL,0.03,WeatherDisplay:10.37,2013-01-02 10:00:00,
2013-01-02 11:00:00,53.2,51.3,30.12,West,270,6.0,6.0,93,0.00,CL,CL,0.03,WeatherDisplay:10.37,2013-01-02 11:00:00,
2013-01-02 12:00:00,53.5,51.5,30.15,ESE,113,6.0,6.0,93,0.00,CL,CL,0.03,WeatherDisplay:10.37,2013-01-02 12:00:00,
2013-01-02 13:00:00,52.7,50.7,30.15,West,270,5.0,8.0,93,0.00,CL,CL,0.03,WeatherDisplay:10.37,2013-01-02 13:00:00,
2013-01-02 14:00:00,53.2,51.3,30.17,South,180,6.0,8.0,93,0.00,CL,CL,0.03,WeatherDisplay:10.37,2013-01-02 14:00:00,
2013-01-02 15:00:00,53.2,51.0,30.20,WSW,248,5.0,6.0,92,0.00,CL,CL,0.03,WeatherDisplay:10.37,2013-01-02 15:00:00,
2013-01-02 16:00:00,53.1,51.1,30.22,SE,135,3.0,3.0,93,0.00,CL,CL,0.03,WeatherDisplay:10.37,2013-01-02 16:00:00,
2013-01-02 17:00:00,53.1,50.8,30.23,SSE,158,3.0,5.0,92,0.00,CL,CL,0.03,WeatherDisplay:10.37,2013-01-02 17:00:00,
2013-01-02 18:00:00,52.9,50.9,30.24,WSW,248,2.0,3.0,93,0.00,CL,CL,0.03,WeatherDisplay:10.37,2013-01-02 18:00:00,
2013-01-02 19:00:00,53.1,51.1,30.25,WSW,248,6.0,9.0,93,0.00,CL,CL,0.03,WeatherDisplay:10.37,2013-01-02 19:00:00,
2013-01-02 20:00:00,52.9,51.2,30.27,West,270,2.0,7.0,94,0.00,CL,CL,0.03,WeatherDisplay:10.37,2013-01-02 20:00:00,
2013-01-02 21:00:00,52.7,51.0,30.28,SE,135,2.0,6.0,94,0.00,CL,CL,0.03,WeatherDisplay:10.37,2013-01-02 21:00:00,
2013-01-02 22:00:00,52.7,51.0,30.29,WSW,248,3.0,8.0,94,0.00,CL,CL,0.03,WeatherDisplay:10.37,2013-01-02 22:00:00,
2013-01-02 23:00:00,52.5,51.1,30.30,SE,135,3.0,3.0,95,0.00,CL,CL,0.03,WeatherDisplay:10.37,2013-01-02 23:00:00,